sensor_id;sensor_type;location;lat;lon;timestamp;P1;durP1;ratioP1;P2;durP2;ratioP2
62475;SDS011;50739;45.670;11.936;2023-07-02T00:01:02;10.40;;;7.40;;
62475;SDS011;50739;45.670;11.936;2023-07-02T00:06:06;12.38;;;8.18;;
62475;SDS011;50739;45.670;11.936;2023-07-02T00:11:08;13.07;;;9.25;;
62475;SDS011;50739;45.670;11.936;2023-07-02T00:16:13;12.30;;;9.35;;
62475;SDS011;50739;45.670;11.936;2023-07-02T00:21:16;13.67;;;10.57;;
62475;SDS011;50739;45.670;11.936;2023-07-02T00:26:19;13.57;;;10.05;;
62475;SDS011;50739;45.670;11.936;2023-07-02T00:31:22;13.57;;;9.80;;
62475;SDS011;50739;45.670;11.936;2023-07-02T00:36:26;15.77;;;10.60;;
62475;SDS011;50739;45.670;11.936;2023-07-02T00:41:29;14.27;;;10.32;;
62475;SDS011;50739;45.670;11.936;2023-07-02T00:46:31;13.77;;;10.47;;
62475;SDS011;50739;45.670;11.936;2023-07-02T00:51:35;14.80;;;11.40;;
62475;SDS011;50739;45.670;11.936;2023-07-02T00:56:37;15.60;;;11.75;;
62475;SDS011;50739;45.670;11.936;2023-07-02T01:01:40;15.93;;;12.43;;
62475;SDS011;50739;45.670;11.936;2023-07-02T01:06:44;16.30;;;11.98;;
62475;SDS011;50739;45.670;11.936;2023-07-02T01:11:48;14.80;;;11.23;;
62475;SDS011;50739;45.670;11.936;2023-07-02T01:16:52;14.93;;;12.60;;
62475;SDS011;50739;45.670;11.936;2023-07-02T01:21:58;13.77;;;11.63;;
62475;SDS011;50739;45.670;11.936;2023-07-02T01:27:01;13.33;;;11.73;;
62475;SDS011;50739;45.670;11.936;2023-07-02T01:32:04;15.70;;;11.80;;
62475;SDS011;50739;45.670;11.936;2023-07-02T01:37:08;14.47;;;11.43;;
62475;SDS011;50739;45.670;11.936;2023-07-02T01:42:11;17.07;;;13.13;;
62475;SDS011;50739;45.670;11.936;2023-07-02T01:47:16;17.13;;;12.40;;
62475;SDS011;50739;45.670;11.936;2023-07-02T01:52:21;16.93;;;13.17;;
62475;SDS011;50739;45.670;11.936;2023-07-02T01:57:24;17.40;;;12.93;;
62475;SDS011;50739;45.670;11.936;2023-07-02T02:02:26;16.55;;;13.60;;
62475;SDS011;50739;45.670;11.936;2023-07-02T02:07:30;15.85;;;12.73;;
62475;SDS011;50739;45.670;11.936;2023-07-02T02:12:33;15.93;;;13.27;;
62475;SDS011;50739;45.670;11.936;2023-07-02T02:17:35;16.67;;;12.90;;
62475;SDS011;50739;45.670;11.936;2023-07-02T02:22:39;15.52;;;12.32;;
62475;SDS011;50739;45.670;11.936;2023-07-02T02:27:41;15.70;;;12.90;;
62475;SDS011;50739;45.670;11.936;2023-07-02T02:32:45;15.70;;;12.25;;
62475;SDS011;50739;45.670;11.936;2023-07-02T02:37:49;15.93;;;12.48;;
62475;SDS011;50739;45.670;11.936;2023-07-02T02:42:51;14.35;;;11.80;;
62475;SDS011;50739;45.670;11.936;2023-07-02T02:47:53;16.33;;;12.63;;
62475;SDS011;50739;45.670;11.936;2023-07-02T02:52:57;15.47;;;12.57;;
62475;SDS011;50739;45.670;11.936;2023-07-02T02:57:59;15.43;;;12.10;;
62475;SDS011;50739;45.670;11.936;2023-07-02T03:03:02;15.90;;;12.70;;
62475;SDS011;50739;45.670;11.936;2023-07-02T03:08:05;16.20;;;12.80;;
62475;SDS011;50739;45.670;11.936;2023-07-02T03:13:08;17.38;;;12.15;;
62475;SDS011;50739;45.670;11.936;2023-07-02T03:18:10;14.53;;;11.87;;
62475;SDS011;50739;45.670;11.936;2023-07-02T03:23:14;13.40;;;11.23;;
62475;SDS011;50739;45.670;11.936;2023-07-02T03:28:17;13.23;;;10.98;;
62475;SDS011;50739;45.670;11.936;2023-07-02T03:33:19;14.32;;;10.63;;
62475;SDS011;50739;45.670;11.936;2023-07-02T03:38:23;13.47;;;10.90;;
62475;SDS011;50739;45.670;11.936;2023-07-02T03:43:26;14.90;;;10.57;;
62475;SDS011;50739;45.670;11.936;2023-07-02T03:48:28;13.37;;;10.27;;
62475;SDS011;50739;45.670;11.936;2023-07-02T03:53:32;12.23;;;10.55;;
62475;SDS011;50739;45.670;11.936;2023-07-02T03:58:35;13.23;;;9.80;;
62475;SDS011;50739;45.670;11.936;2023-07-02T04:03:37;11.57;;;10.03;;
62475;SDS011;50739;45.670;11.936;2023-07-02T04:08:41;12.48;;;10.40;;
62475;SDS011;50739;45.670;11.936;2023-07-02T04:13:43;13.00;;;10.27;;
62475;SDS011;50739;45.670;11.936;2023-07-02T04:18:46;11.45;;;10.20;;
62475;SDS011;50739;45.670;11.936;2023-07-02T04:23:49;13.70;;;10.50;;
62475;SDS011;50739;45.670;11.936;2023-07-02T04:28:52;11.32;;;9.43;;
62475;SDS011;50739;45.670;11.936;2023-07-02T04:33:55;11.27;;;9.43;;
62475;SDS011;50739;45.670;11.936;2023-07-02T04:38:58;11.77;;;9.45;;
62475;SDS011;50739;45.670;11.936;2023-07-02T04:44:01;12.57;;;9.32;;
62475;SDS011;50739;45.670;11.936;2023-07-02T04:49:03;10.68;;;8.98;;
62475;SDS011;50739;45.670;11.936;2023-07-02T04:54:07;10.97;;;8.70;;
62475;SDS011;50739;45.670;11.936;2023-07-02T04:59:09;9.07;;;7.80;;
62475;SDS011;50739;45.670;11.936;2023-07-02T05:04:12;9.25;;;7.68;;
62475;SDS011;50739;45.670;11.936;2023-07-02T05:09:16;8.88;;;7.20;;
62475;SDS011;50739;45.670;11.936;2023-07-02T05:14:18;9.37;;;7.27;;
62475;SDS011;50739;45.670;11.936;2023-07-02T05:19:21;9.50;;;7.60;;
62475;SDS011;50739;45.670;11.936;2023-07-02T05:24:25;8.82;;;7.72;;
62475;SDS011;50739;45.670;11.936;2023-07-02T05:29:27;8.73;;;6.97;;
62475;SDS011;50739;45.670;11.936;2023-07-02T05:34:29;10.75;;;7.80;;
62475;SDS011;50739;45.670;11.936;2023-07-02T05:39:33;9.53;;;7.23;;
62475;SDS011;50739;45.670;11.936;2023-07-02T05:44:36;9.93;;;8.27;;
62475;SDS011;50739;45.670;11.936;2023-07-02T05:49:38;11.63;;;8.10;;
62475;SDS011;50739;45.670;11.936;2023-07-02T05:54:44;9.70;;;8.60;;
62475;SDS011;50739;45.670;11.936;2023-07-02T05:59:46;9.32;;;7.60;;
62475;SDS011;50739;45.670;11.936;2023-07-02T06:04:48;11.35;;;7.70;;
62475;SDS011;50739;45.670;11.936;2023-07-02T06:09:52;9.50;;;7.27;;
62475;SDS011;50739;45.670;11.936;2023-07-02T06:14:54;9.65;;;7.20;;
62475;SDS011;50739;45.670;11.936;2023-07-02T06:19:56;10.00;;;7.00;;
62475;SDS011;50739;45.670;11.936;2023-07-02T06:25:00;9.37;;;7.23;;
62475;SDS011;50739;45.670;11.936;2023-07-02T06:30:02;9.85;;;6.78;;
62475;SDS011;50739;45.670;11.936;2023-07-02T06:35:06;8.88;;;6.72;;
62475;SDS011;50739;45.670;11.936;2023-07-02T06:40:11;9.30;;;6.65;;
62475;SDS011;50739;45.670;11.936;2023-07-02T06:45:13;9.10;;;7.35;;
62475;SDS011;50739;45.670;11.936;2023-07-02T06:50:16;8.33;;;6.80;;
62475;SDS011;50739;45.670;11.936;2023-07-02T06:55:19;9.48;;;7.15;;
62475;SDS011;50739;45.670;11.936;2023-07-02T07:00:22;9.77;;;7.77;;
62475;SDS011;50739;45.670;11.936;2023-07-02T07:05:24;9.30;;;7.55;;
62475;SDS011;50739;45.670;11.936;2023-07-02T07:10:28;10.15;;;7.38;;
62475;SDS011;50739;45.670;11.936;2023-07-02T07:15:34;9.02;;;7.30;;
62475;SDS011;50739;45.670;11.936;2023-07-02T07:20:38;10.35;;;7.45;;
62475;SDS011;50739;45.670;11.936;2023-07-02T07:25:42;10.63;;;7.40;;
62475;SDS011;50739;45.670;11.936;2023-07-02T07:30:44;13.32;;;7.93;;
62475;SDS011;50739;45.670;11.936;2023-07-02T07:35:47;9.35;;;6.40;;
62475;SDS011;50739;45.670;11.936;2023-07-02T07:40:51;10.33;;;7.57;;
62475;SDS011;50739;45.670;11.936;2023-07-02T07:45:53;9.93;;;7.10;;
62475;SDS011;50739;45.670;11.936;2023-07-02T07:50:56;8.38;;;6.50;;
62475;SDS011;50739;45.670;11.936;2023-07-02T07:56:00;9.45;;;6.55;;
62475;SDS011;50739;45.670;11.936;2023-07-02T08:01:02;8.98;;;7.72;;
62475;SDS011;50739;45.670;11.936;2023-07-02T08:06:05;9.10;;;6.47;;
62475;SDS011;50739;45.670;11.936;2023-07-02T08:11:09;9.82;;;7.03;;
62475;SDS011;50739;45.670;11.936;2023-07-02T08:16:12;8.70;;;7.47;;
62475;SDS011;50739;45.670;11.936;2023-07-02T08:21:14;11.57;;;7.22;;
62475;SDS011;50739;45.670;11.936;2023-07-02T08:26:18;9.85;;;7.13;;
62475;SDS011;50739;45.670;11.936;2023-07-02T08:31:20;9.40;;;7.10;;
62475;SDS011;50739;45.670;11.936;2023-07-02T08:36:23;9.85;;;7.45;;
62475;SDS011;50739;45.670;11.936;2023-07-02T08:41:26;9.73;;;6.55;;
62475;SDS011;50739;45.670;11.936;2023-07-02T08:46:30;9.95;;;6.85;;
62475;SDS011;50739;45.670;11.936;2023-07-02T08:51:32;9.00;;;6.80;;
62475;SDS011;50739;45.670;11.936;2023-07-02T08:56:36;7.97;;;5.93;;
62475;SDS011;50739;45.670;11.936;2023-07-02T09:01:45;7.95;;;6.32;;
62475;SDS011;50739;45.670;11.936;2023-07-02T09:06:48;6.80;;;5.13;;
62475;SDS011;50739;45.670;11.936;2023-07-02T09:11:53;39.83;;;7.68;;
62475;SDS011;50739;45.670;11.936;2023-07-02T09:17:01;209.13;;;21.15;;
62475;SDS011;50739;45.670;11.936;2023-07-02T09:22:05;7.63;;;4.53;;
62475;SDS011;50739;45.670;11.936;2023-07-02T09:27:08;6.73;;;4.97;;
62475;SDS011;50739;45.670;11.936;2023-07-02T09:32:11;8.68;;;6.10;;
62475;SDS011;50739;45.670;11.936;2023-07-02T09:37:13;8.57;;;6.20;;
62475;SDS011;50739;45.670;11.936;2023-07-02T09:42:17;9.67;;;6.70;;
62475;SDS011;50739;45.670;11.936;2023-07-02T09:47:20;10.93;;;6.40;;
62475;SDS011;50739;45.670;11.936;2023-07-02T09:52:25;10.60;;;7.87;;
62475;SDS011;50739;45.670;11.936;2023-07-02T09:57:29;10.50;;;7.88;;
62475;SDS011;50739;45.670;11.936;2023-07-02T10:02:32;9.45;;;7.75;;
62475;SDS011;50739;45.670;11.936;2023-07-02T10:07:34;9.73;;;7.15;;
62475;SDS011;50739;45.670;11.936;2023-07-02T10:12:45;9.35;;;7.30;;
62475;SDS011;50739;45.670;11.936;2023-07-02T10:17:54;11.40;;;8.07;;
62475;SDS011;50739;45.670;11.936;2023-07-02T10:22:57;9.98;;;7.72;;
62475;SDS011;50739;45.670;11.936;2023-07-02T10:28:01;14.80;;;8.88;;
62475;SDS011;50739;45.670;11.936;2023-07-02T10:33:16;14.55;;;8.93;;
62475;SDS011;50739;45.670;11.936;2023-07-02T10:38:20;12.85;;;8.35;;
62475;SDS011;50739;45.670;11.936;2023-07-02T10:43:27;10.68;;;7.82;;
62475;SDS011;50739;45.670;11.936;2023-07-02T10:48:30;9.13;;;7.05;;
62475;SDS011;50739;45.670;11.936;2023-07-02T10:53:33;9.43;;;7.32;;
62475;SDS011;50739;45.670;11.936;2023-07-02T10:58:42;10.85;;;8.60;;
62475;SDS011;50739;45.670;11.936;2023-07-02T11:03:45;10.30;;;8.23;;
62475;SDS011;50739;45.670;11.936;2023-07-02T11:08:48;18.95;;;13.88;;
62475;SDS011;50739;45.670;11.936;2023-07-02T11:13:51;8.98;;;7.65;;
62475;SDS011;50739;45.670;11.936;2023-07-02T11:19:08;12.90;;;8.48;;
62475;SDS011;50739;45.670;11.936;2023-07-02T11:24:10;9.23;;;7.30;;
62475;SDS011;50739;45.670;11.936;2023-07-02T11:29:17;9.18;;;6.95;;
62475;SDS011;50739;45.670;11.936;2023-07-02T11:34:21;8.75;;;7.70;;
62475;SDS011;50739;45.670;11.936;2023-07-02T11:39:24;8.83;;;7.90;;
62475;SDS011;50739;45.670;11.936;2023-07-02T11:44:28;7.87;;;7.07;;
62475;SDS011;50739;45.670;11.936;2023-07-02T11:49:30;9.48;;;7.45;;
62475;SDS011;50739;45.670;11.936;2023-07-02T11:54:32;8.25;;;6.53;;
62475;SDS011;50739;45.670;11.936;2023-07-02T11:59:36;7.47;;;6.77;;
62475;SDS011;50739;45.670;11.936;2023-07-02T12:04:38;9.23;;;7.22;;
62475;SDS011;50739;45.670;11.936;2023-07-02T12:09:41;8.77;;;7.43;;
62475;SDS011;50739;45.670;11.936;2023-07-02T12:14:45;8.10;;;6.72;;
62475;SDS011;50739;45.670;11.936;2023-07-02T12:19:47;8.32;;;6.20;;
62475;SDS011;50739;45.670;11.936;2023-07-02T12:24:49;13.73;;;6.82;;
62475;SDS011;50739;45.670;11.936;2023-07-02T12:29:55;10.10;;;6.30;;
62475;SDS011;50739;45.670;11.936;2023-07-02T12:34:58;7.95;;;6.35;;
62475;SDS011;50739;45.670;11.936;2023-07-02T12:40:00;6.93;;;5.78;;
62475;SDS011;50739;45.670;11.936;2023-07-02T12:45:06;6.93;;;6.00;;
62475;SDS011;50739;45.670;11.936;2023-07-02T12:50:09;8.43;;;6.20;;
62475;SDS011;50739;45.670;11.936;2023-07-02T12:55:12;6.40;;;5.80;;
62475;SDS011;50739;45.670;11.936;2023-07-02T13:00:16;7.90;;;6.30;;
62475;SDS011;50739;45.670;11.936;2023-07-02T13:05:19;6.67;;;5.90;;
62475;SDS011;50739;45.670;11.936;2023-07-02T13:10:21;6.97;;;5.63;;
62475;SDS011;50739;45.670;11.936;2023-07-02T13:15:25;7.00;;;6.28;;
62475;SDS011;50739;45.670;11.936;2023-07-02T13:20:28;7.00;;;6.28;;
62475;SDS011;50739;45.670;11.936;2023-07-02T13:25:30;9.20;;;6.75;;
62475;SDS011;50739;45.670;11.936;2023-07-02T13:30:36;6.63;;;5.93;;
62475;SDS011;50739;45.670;11.936;2023-07-02T13:35:38;7.03;;;6.00;;
62475;SDS011;50739;45.670;11.936;2023-07-02T13:40:40;7.13;;;6.10;;
62475;SDS011;50739;45.670;11.936;2023-07-02T13:45:44;8.57;;;6.03;;
62475;SDS011;50739;45.670;11.936;2023-07-02T13:50:47;7.63;;;6.32;;
62475;SDS011;50739;45.670;11.936;2023-07-02T13:55:49;7.78;;;6.57;;
62475;SDS011;50739;45.670;11.936;2023-07-02T14:00:53;7.85;;;6.55;;
62475;SDS011;50739;45.670;11.936;2023-07-02T14:05:55;7.68;;;6.03;;
62475;SDS011;50739;45.670;11.936;2023-07-02T14:10:58;6.85;;;6.20;;
62475;SDS011;50739;45.670;11.936;2023-07-02T14:16:01;7.20;;;6.28;;
62475;SDS011;50739;45.670;11.936;2023-07-02T14:21:04;8.98;;;6.65;;
62475;SDS011;50739;45.670;11.936;2023-07-02T14:26:06;7.28;;;6.57;;
62475;SDS011;50739;45.670;11.936;2023-07-02T14:31:11;7.05;;;6.35;;
62475;SDS011;50739;45.670;11.936;2023-07-02T14:36:13;8.07;;;6.37;;
62475;SDS011;50739;45.670;11.936;2023-07-02T14:41:15;7.15;;;6.45;;
62475;SDS011;50739;45.670;11.936;2023-07-02T14:46:19;7.30;;;6.60;;
62475;SDS011;50739;45.670;11.936;2023-07-02T14:51:23;7.88;;;5.85;;
62475;SDS011;50739;45.670;11.936;2023-07-02T14:56:25;6.70;;;6.05;;
62475;SDS011;50739;45.670;11.936;2023-07-02T15:01:29;8.87;;;6.40;;
62475;SDS011;50739;45.670;11.936;2023-07-02T15:06:32;8.00;;;6.35;;
62475;SDS011;50739;45.670;11.936;2023-07-02T15:11:35;7.32;;;6.38;;
62475;SDS011;50739;45.670;11.936;2023-07-02T15:16:39;8.07;;;6.60;;
62475;SDS011;50739;45.670;11.936;2023-07-02T15:21:41;6.30;;;5.70;;
62475;SDS011;50739;45.670;11.936;2023-07-02T15:26:44;6.90;;;5.88;;
62475;SDS011;50739;45.670;11.936;2023-07-02T15:31:48;7.60;;;6.25;;
62475;SDS011;50739;45.670;11.936;2023-07-02T15:36:51;7.68;;;6.03;;
62475;SDS011;50739;45.670;11.936;2023-07-02T15:41:53;7.15;;;5.80;;
62475;SDS011;50739;45.670;11.936;2023-07-02T15:46:57;7.10;;;5.90;;
62475;SDS011;50739;45.670;11.936;2023-07-02T15:51:59;6.05;;;5.30;;
62475;SDS011;50739;45.670;11.936;2023-07-02T15:57:01;6.97;;;5.90;;
62475;SDS011;50739;45.670;11.936;2023-07-02T16:02:05;7.20;;;5.50;;
62475;SDS011;50739;45.670;11.936;2023-07-02T16:07:09;6.57;;;5.57;;
62475;SDS011;50739;45.670;11.936;2023-07-02T16:12:11;6.30;;;5.40;;
62475;SDS011;50739;45.670;11.936;2023-07-02T16:17:15;7.60;;;5.95;;
62475;SDS011;50739;45.670;11.936;2023-07-02T16:22:17;5.93;;;5.23;;
62475;SDS011;50739;45.670;11.936;2023-07-02T16:27:20;7.60;;;5.50;;
62475;SDS011;50739;45.670;11.936;2023-07-02T16:32:24;6.53;;;5.43;;
62475;SDS011;50739;45.670;11.936;2023-07-02T16:37:29;8.55;;;5.22;;
62475;SDS011;50739;45.670;11.936;2023-07-02T16:42:31;6.63;;;5.70;;
62475;SDS011;50739;45.670;11.936;2023-07-02T16:47:35;5.60;;;5.07;;
62475;SDS011;50739;45.670;11.936;2023-07-02T16:52:37;5.80;;;5.20;;
62475;SDS011;50739;45.670;11.936;2023-07-02T16:57:39;7.38;;;5.10;;
62475;SDS011;50739;45.670;11.936;2023-07-02T17:02:43;6.13;;;5.53;;
62475;SDS011;50739;45.670;11.936;2023-07-02T17:07:45;6.63;;;5.65;;
62475;SDS011;50739;45.670;11.936;2023-07-02T17:12:47;7.10;;;5.10;;
62475;SDS011;50739;45.670;11.936;2023-07-02T17:17:52;6.63;;;5.90;;
62475;SDS011;50739;45.670;11.936;2023-07-02T17:22:55;6.95;;;5.22;;
62475;SDS011;50739;45.670;11.936;2023-07-02T17:27:57;6.55;;;5.30;;
62475;SDS011;50739;45.670;11.936;2023-07-02T17:33:01;6.43;;;5.32;;
62475;SDS011;50739;45.670;11.936;2023-07-02T17:38:03;7.40;;;5.40;;
62475;SDS011;50739;45.670;11.936;2023-07-02T17:43:06;5.57;;;5.07;;
62475;SDS011;50739;45.670;11.936;2023-07-02T17:48:09;6.30;;;5.30;;
62475;SDS011;50739;45.670;11.936;2023-07-02T17:53:12;5.93;;;5.17;;
62475;SDS011;50739;45.670;11.936;2023-07-02T17:58:14;6.27;;;5.20;;
62475;SDS011;50739;45.670;11.936;2023-07-02T18:03:18;8.02;;;5.57;;
62475;SDS011;50739;45.670;11.936;2023-07-02T18:08:20;7.80;;;5.23;;
62475;SDS011;50739;45.670;11.936;2023-07-02T18:13:22;5.93;;;4.97;;
62475;SDS011;50739;45.670;11.936;2023-07-02T18:18:26;5.70;;;5.10;;
62475;SDS011;50739;45.670;11.936;2023-07-02T18:23:28;6.47;;;4.80;;
62475;SDS011;50739;45.670;11.936;2023-07-02T18:28:31;7.63;;;5.20;;
62475;SDS011;50739;45.670;11.936;2023-07-02T18:33:34;7.03;;;5.27;;
62475;SDS011;50739;45.670;11.936;2023-07-02T18:38:37;7.15;;;5.10;;
62475;SDS011;50739;45.670;11.936;2023-07-02T18:43:39;6.07;;;5.47;;
62475;SDS011;50739;45.670;11.936;2023-07-02T18:48:43;5.90;;;5.30;;
62475;SDS011;50739;45.670;11.936;2023-07-02T18:53:46;6.68;;;5.68;;
62475;SDS011;50739;45.670;11.936;2023-07-02T18:58:48;6.68;;;5.63;;
62475;SDS011;50739;45.670;11.936;2023-07-02T19:03:51;6.68;;;6.00;;
62475;SDS011;50739;45.670;11.936;2023-07-02T19:08:55;6.47;;;5.65;;
62475;SDS011;50739;45.670;11.936;2023-07-02T19:13:57;6.20;;;5.60;;
62475;SDS011;50739;45.670;11.936;2023-07-02T19:19:01;9.37;;;6.33;;
62475;SDS011;50739;45.670;11.936;2023-07-02T19:24:03;6.82;;;6.10;;
62475;SDS011;50739;45.670;11.936;2023-07-02T19:29:06;6.80;;;5.83;;
62475;SDS011;50739;45.670;11.936;2023-07-02T19:34:15;6.88;;;6.18;;
62475;SDS011;50739;45.670;11.936;2023-07-02T19:39:19;7.30;;;6.50;;
62475;SDS011;50739;45.670;11.936;2023-07-02T19:44:21;6.97;;;6.27;;
62475;SDS011;50739;45.670;11.936;2023-07-02T19:49:25;7.73;;;6.93;;
62475;SDS011;50739;45.670;11.936;2023-07-02T19:54:27;7.95;;;7.10;;
62475;SDS011;50739;45.670;11.936;2023-07-02T19:59:30;8.10;;;6.38;;
62475;SDS011;50739;45.670;11.936;2023-07-02T20:04:33;7.40;;;6.63;;
62475;SDS011;50739;45.670;11.936;2023-07-02T20:09:36;8.60;;;6.77;;
62475;SDS011;50739;45.670;11.936;2023-07-02T20:14:41;7.50;;;6.70;;
62475;SDS011;50739;45.670;11.936;2023-07-02T20:19:47;7.82;;;7.03;;
62475;SDS011;50739;45.670;11.936;2023-07-02T20:24:51;8.53;;;7.40;;
62475;SDS011;50739;45.670;11.936;2023-07-02T20:29:54;9.57;;;8.18;;
62475;SDS011;50739;45.670;11.936;2023-07-02T20:34:57;9.40;;;8.40;;
62475;SDS011;50739;45.670;11.936;2023-07-02T20:40:00;11.43;;;9.60;;
62475;SDS011;50739;45.670;11.936;2023-07-02T20:45:11;10.48;;;9.15;;
62475;SDS011;50739;45.670;11.936;2023-07-02T20:50:15;10.23;;;9.10;;
62475;SDS011;50739;45.670;11.936;2023-07-02T20:55:18;9.97;;;8.90;;
62475;SDS011;50739;45.670;11.936;2023-07-02T21:00:20;10.70;;;9.00;;
62475;SDS011;50739;45.670;11.936;2023-07-02T21:05:24;11.85;;;10.40;;
62475;SDS011;50739;45.670;11.936;2023-07-02T21:10:26;12.05;;;10.57;;
62475;SDS011;50739;45.670;11.936;2023-07-02T21:20:32;11.57;;;10.20;;
62475;SDS011;50739;45.670;11.936;2023-07-02T21:25:34;12.80;;;11.18;;
62475;SDS011;50739;45.670;11.936;2023-07-02T21:30:37;13.23;;;11.63;;
62475;SDS011;50739;45.670;11.936;2023-07-02T21:35:40;12.82;;;11.20;;
62475;SDS011;50739;45.670;11.936;2023-07-02T21:40:43;12.45;;;11.15;;
62475;SDS011;50739;45.670;11.936;2023-07-02T21:45:51;14.07;;;11.25;;
62475;SDS011;50739;45.670;11.936;2023-07-02T21:50:55;13.13;;;11.20;;
62475;SDS011;50739;45.670;11.936;2023-07-02T21:55:57;12.23;;;10.77;;
62475;SDS011;50739;45.670;11.936;2023-07-02T22:01:00;12.18;;;10.77;;
62475;SDS011;50739;45.670;11.936;2023-07-02T22:06:03;12.30;;;10.43;;
62475;SDS011;50739;45.670;11.936;2023-07-02T22:11:10;12.98;;;11.43;;
62475;SDS011;50739;45.670;11.936;2023-07-02T22:16:13;12.13;;;10.50;;
62475;SDS011;50739;45.670;11.936;2023-07-02T22:21:17;11.98;;;10.68;;
62475;SDS011;50739;45.670;11.936;2023-07-02T22:26:20;10.73;;;9.63;;
62475;SDS011;50739;45.670;11.936;2023-07-02T22:31:22;10.68;;;9.57;;
62475;SDS011;50739;45.670;11.936;2023-07-02T22:36:25;10.63;;;9.52;;
62475;SDS011;50739;45.670;11.936;2023-07-02T22:41:28;9.77;;;8.73;;
62475;SDS011;50739;45.670;11.936;2023-07-02T22:46:31;11.00;;;9.77;;
62475;SDS011;50739;45.670;11.936;2023-07-02T22:51:34;13.07;;;10.67;;
62475;SDS011;50739;45.670;11.936;2023-07-02T22:56:37;11.18;;;9.98;;
62475;SDS011;50739;45.670;11.936;2023-07-02T23:01:39;10.68;;;9.57;;
62475;SDS011;50739;45.670;11.936;2023-07-02T23:06:43;10.50;;;9.40;;
62475;SDS011;50739;45.670;11.936;2023-07-02T23:11:46;10.10;;;9.07;;
62475;SDS011;50739;45.670;11.936;2023-07-02T23:16:48;10.90;;;9.55;;
62475;SDS011;50739;45.670;11.936;2023-07-02T23:21:52;11.83;;;9.40;;
62475;SDS011;50739;45.670;11.936;2023-07-02T23:26:55;10.80;;;9.70;;
62475;SDS011;50739;45.670;11.936;2023-07-02T23:31:57;10.70;;;9.57;;
62475;SDS011;50739;45.670;11.936;2023-07-02T23:37:01;10.30;;;9.20;;
62475;SDS011;50739;45.670;11.936;2023-07-02T23:42:04;10.52;;;9.43;;
62475;SDS011;50739;45.670;11.936;2023-07-02T23:47:07;10.77;;;9.68;;
62475;SDS011;50739;45.670;11.936;2023-07-02T23:52:11;10.97;;;9.87;;
62475;SDS011;50739;45.670;11.936;2023-07-02T23:57:13;12.90;;;10.40;;
